Time;durP1;ratioP1;P1;durP2;ratioP2;P2;SDS_P1;SDS_P2;PMS_P1;PMS_P2;Temp;Humidity;BMP_temperature;BMP_pressure;BME280_temperature;BME280_humidity;BME280_pressure;Samples;Min_cycle;Max_cycle;Signal;HPM_P1;HPM_P2
2022/09/05 00:01:58;;;;;;;14.90;6.70;;;;;;;11.84;52.20;101687.40;84276;1337;25256;-72
2022/09/05 00:04:30;;;;;;;9.40;4.60;;;;;;;11.81;52.30;101687.10;84283;1338;25289;-74
2022/09/05 00:06:59;;;;;;;11.70;3.90;;;;;;;11.78;52.33;101691.00;84282;1338;22769;-75
2022/09/05 00:09:46;;;;;;;5.80;2.60;;;;;;;11.74;52.42;101693.00;84275;1334;22605;-75
2022/09/05 00:12:12;;;;;;;4.60;2.10;;;;;;;11.67;52.62;101692.63;84266;1339;22758;-72
2022/09/05 00:14:51;;;;;;;4.40;1.90;;;;;;;11.61;52.81;101692.23;84079;1339;22617;-72
2022/09/05 00:17:21;;;;;;;4.40;1.70;;;;;;;11.55;52.97;101688.88;84244;1338;22608;-74
2022/09/05 00:19:51;;;;;;;1.70;1.10;;;;;;;11.52;52.97;101694.35;84252;1333;22721;-74
2022/09/05 00:22:29;;;;;;;3.70;1.80;;;;;;;11.48;53.05;101694.41;84283;1337;25309;-76
2022/09/05 00:25:08;;;;;;;6.70;2.90;;;;;;;11.46;53.28;101696.91;84260;1328;24110;-75
2022/09/05 00:27:42;;;;;;;6.20;2.60;;;;;;;11.45;53.40;101692.39;84083;1331;22609;-73
2022/09/05 00:30:15;;;;;;;7.20;3.80;;;;;;;11.43;53.42;101691.56;84135;1340;22756;-74
2022/09/05 00:33:15;;;;;;;23.80;9.40;;;;;;;11.42;53.49;101699.27;84110;1341;25601;-72
2022/09/05 00:35:59;;;;;;;30.40;11.50;;;;;;;11.41;53.54;101690.56;84082;1337;24291;-72
2022/09/05 00:38:27;;;;;;;43.40;13.80;;;;;;;11.40;53.80;101695.64;83876;1341;22680;-73
2022/09/05 00:40:55;;;;;;;48.60;19.50;;;;;;;11.39;53.79;101694.44;84280;1339;22868;-73
2022/09/05 00:43:23;;;;;;;45.60;17.80;;;;;;;11.37;53.90;101694.65;84154;1336;26555;-74
2022/09/05 00:45:52;;;;;;;33.30;13.10;;;;;;;11.33;53.93;101695.60;84271;1339;25527;-74
2022/09/05 00:48:25;;;;;;;25.20;10.00;;;;;;;11.29;54.10;101691.48;84281;1338;22646;-74
2022/09/05 00:51:05;;;;;;;41.80;16.10;;;;;;;11.25;54.04;101689.11;84264;1336;22604;-75
2022/09/05 00:53:39;;;;;;;40.20;14.80;;;;;;;11.23;54.15;101686.02;84280;1337;22613;-72
2022/09/05 00:56:16;;;;;;;44.70;14.80;;;;;;;11.20;54.09;101685.21;84262;1328;25930;-71
2022/09/05 00:58:58;;;;;;;37.50;14.20;;;;;;;11.17;54.26;101683.88;84158;1328;24379;-71
2022/09/05 01:01:31;;;;;;;38.90;13.80;;;;;;;11.13;54.38;101682.55;84177;1338;22718;-72
2022/09/05 01:04:12;;;;;;;32.90;12.10;;;;;;;11.06;54.53;101686.18;84257;1340;25477;-72
2022/09/05 01:06:53;;;;;;;26.90;10.60;;;;;;;11.01;54.55;101687.14;84301;1339;22590;-75
2022/09/05 01:09:28;;;;;;;22.40;8.30;;;;;;;10.94;54.80;101688.48;84234;1338;22606;-74
2022/09/05 01:12:21;;;;;;;25.10;9.50;;;;;;;10.88;55.04;101689.83;84277;1336;25780;-74
2022/09/05 01:15:09;;;;;;;18.70;8.30;;;;;;;10.86;55.19;101691.61;84300;1337;22635;-74
2022/09/05 01:17:48;;;;;;;17.70;7.70;;;;;;;10.82;55.14;101689.41;84298;1339;22751;-74
2022/09/05 01:20:28;;;;;;;13.50;6.00;;;;;;;10.80;55.36;101693.30;84291;1337;22685;-74
2022/09/05 01:23:27;;;;;;;9.10;3.80;;;;;;;10.78;55.38;101687.91;84315;1338;22762;-74
2022/09/05 01:26:08;;;;;;;4.60;2.30;;;;;;;10.75;55.51;101690.23;84310;1339;23244;-74
2022/09/05 01:28:39;;;;;;;6.60;2.80;;;;;;;10.71;55.43;101687.52;84210;1340;22621;-73
2022/09/05 01:31:12;;;;;;;5.70;2.80;;;;;;;10.67;55.64;101695.80;84267;1337;22559;-73
2022/09/05 01:33:47;;;;;;;6.90;2.80;;;;;;;10.64;55.81;101695.84;84299;1338;22673;-75
2022/09/05 01:36:26;;;;;;;3.80;1.80;;;;;;;10.60;55.86;101697.48;84285;1337;23954;-76
2022/09/05 01:38:59;;;;;;;2.90;1.40;;;;;;;10.56;56.02;101694.23;84253;1337;22605;-74
2022/09/05 01:41:33;;;;;;;1.70;1.40;;;;;;;10.50;56.33;101697.11;84256;1339;22603;-73
2022/09/05 01:44:14;;;;;;;3.00;1.50;;;;;;;10.45;56.04;101695.98;84280;1337;22596;-73
2022/09/05 01:46:45;;;;;;;2.30;1.20;;;;;;;10.36;56.40;101698.21;83799;1338;544184;-75
2022/09/05 01:49:23;;;;;;;2.20;1.00;;;;;;;10.28;56.46;101693.10;84211;1338;22717;-74
2022/09/05 01:52:10;;;;;;;5.30;1.50;;;;;;;10.19;56.65;101694.62;84195;1338;25627;-75
2022/09/05 01:54:40;;;;;;;3.30;1.20;;;;;;;10.09;56.89;101699.11;84229;1339;22686;-75
2022/09/05 01:57:11;;;;;;;;;;;;;;;10.03;57.16;101698.34;84237;1329;22737;-75
2022/09/05 01:59:44;;;;;;;1.90;1.10;;;;;;;9.95;57.37;101697.23;84130;1340;23082;-73
2022/09/05 02:02:22;;;;;;;2.00;1.10;;;;;;;9.85;57.57;101695.97;84215;1338;24033;-71
2022/09/05 02:05:12;;;;;;;3.10;1.50;;;;;;;9.73;57.92;101702.42;84192;1339;22613;-71
2022/09/05 02:07:56;;;;;;;2.80;1.30;;;;;;;9.63;58.27;101703.41;84350;1337;22735;-74
2022/09/05 02:10:46;;;;;;;3.90;1.40;;;;;;;9.52;58.63;101703.04;84147;1328;25477;-73
2022/09/05 02:13:24;;;;;;;3.90;1.30;;;;;;;9.39;58.89;101703.01;84321;1337;22743;-76
2022/09/05 02:15:53;;;;;;;3.10;1.40;;;;;;;9.29;59.19;101703.30;84292;1338;22726;-75
2022/09/05 02:18:22;;;;;;;5.40;1.50;;;;;;;9.19;59.47;101701.50;84108;1341;24134;-71
2022/09/05 02:20:50;;;;;;;;;;;;;;;9.12;59.78;101703.31;84211;1338;22606;-71
2022/09/05 02:23:28;;;;;;;2.00;1.10;;;;;;;9.02;60.34;101703.94;84259;1339;24238;-75
2022/09/05 02:26:01;;;;;;;1.90;1.20;;;;;;;8.96;60.53;101701.58;84277;1336;22708;-74
2022/09/05 02:28:32;;;;;;;2.10;1.30;;;;;;;8.90;60.61;101702.33;84261;1325;22681;-75
2022/09/05 02:31:03;;;;;;;2.20;1.10;;;;;;;8.84;60.85;101714.21;84268;1336;22699;-75
2022/09/05 02:33:33;;;;;;;1.60;1.10;;;;;;;8.75;61.14;101713.08;84278;1336;24641;-72
2022/09/05 02:36:07;;;;;;;1.60;1.10;;;;;;;8.67;61.22;101715.05;84046;1342;22664;-74
2022/09/05 02:38:42;;;;;;;2.00;1.30;;;;;;;8.56;61.70;101714.29;84192;1338;23083;-74
2022/09/05 02:41:12;;;;;;;1.40;1.00;;;;;;;8.47;62.12;101713.30;84065;1328;22760;-73
2022/09/05 02:43:44;;;;;;;1.80;1.10;;;;;;;8.36;62.45;101708.86;84196;1338;22606;-71
2022/09/05 02:46:12;;;;;;;1.20;0.90;;;;;;;8.25;62.58;101715.70;84090;1339;25604;-72
2022/09/05 02:48:57;;;;;;;1.70;1.10;;;;;;;8.16;62.76;101714.36;84189;1329;22751;-74
2022/09/05 02:51:27;;;;;;;2.00;1.00;;;;;;;8.06;63.47;101713.91;84029;1341;25770;-74
2022/09/05 02:53:57;;;;;;;1.50;1.30;;;;;;;7.97;63.70;101711.19;84217;1338;22657;-74
2022/09/05 02:56:56;;;;;;;2.20;0.80;;;;;;;7.88;64.08;101712.97;84224;1329;22719;-74
2022/09/05 02:59:39;;;;;;;4.40;1.00;;;;;;;7.78;64.39;101715.29;84128;1339;22621;-74
2022/09/05 03:02:14;;;;;;;1.70;0.90;;;;;;;7.69;64.63;101719.31;84089;1336;22703;-75
2022/09/05 03:04:45;;;;;;;2.70;1.20;;;;;;;7.63;64.88;101720.91;84201;1338;22702;-75
2022/09/05 03:07:33;;;;;;;3.10;0.70;;;;;;;7.57;65.00;101723.02;84114;1339;24242;-74
2022/09/05 03:10:20;;;;;;;2.60;1.80;;;;;;;7.50;65.62;101726.85;84185;1338;24695;-72
2022/09/05 03:13:42;;;;;;;4.10;0.90;;;;;;;7.42;65.92;101729.50;84061;1339;22663;-72
2022/09/05 03:16:58;;;;;;;2.90;1.10;;;;;;;7.33;66.15;101727.61;84009;1338;22675;-72
2022/09/05 03:19:54;;;;;;;1.60;1.30;;;;;;;7.25;66.63;101725.38;84242;1338;22685;-74
2022/09/05 03:22:46;;;;;;;1.80;1.40;;;;;;;7.17;66.45;101726.09;84016;1340;22676;-75
2022/09/05 03:25:54;;;;;;;4.00;1.50;;;;;;;7.08;66.99;101724.90;84004;1341;24385;-75
2022/09/05 03:29:33;;;;;;;3.10;1.30;;;;;;;7.01;67.25;101724.04;83828;1341;22609;-75
2022/09/05 03:32:47;;;;;;;4.70;1.10;;;;;;;6.91;67.76;101728.05;83509;1347;22621;-73
2022/09/05 03:36:03;;;;;;;2.40;1.40;;;;;;;6.84;67.66;101728.40;84240;1338;22830;-74
2022/09/05 03:39:18;;;;;;;1.80;1.00;;;;;;;6.80;68.24;101733.26;83715;1344;22663;-73
2022/09/05 03:42:09;;;;;;;1.40;1.30;;;;;;;6.76;68.34;101739.68;84234;1337;22738;-73
2022/09/05 03:44:48;;;;;;;2.90;1.80;;;;;;;6.71;68.66;101744.54;84285;1337;22714;-73
2022/09/05 03:48:01;;;;;;;3.00;1.90;;;;;;;6.68;68.73;101744.89;84300;1337;22708;-73
2022/09/05 03:50:46;;;;;;;4.10;1.50;;;;;;;6.65;68.94;101745.75;84244;1337;22681;-71
2022/09/05 03:53:42;;;;;;;5.00;2.30;;;;;;;6.64;68.92;101743.48;84293;1330;22753;-71
2022/09/05 03:56:30;;;;;;;3.60;1.70;;;;;;;6.65;69.07;101744.36;84182;1333;22683;-72
2022/09/05 03:59:19;;;;;;;5.60;1.80;;;;;;;6.63;69.10;101750.95;84276;1338;22689;-71
2022/09/05 04:01:47;;;;;;;2.30;1.60;;;;;;;6.61;69.21;101755.98;84064;1339;22607;-71
2022/09/05 04:04:26;;;;;;;5.90;1.80;;;;;;;6.57;69.50;101751.64;84184;1339;25471;-70
2022/09/05 04:06:55;;;;;;;6.80;1.80;;;;;;;6.51;69.67;101750.77;84261;1338;23939;-74
2022/09/05 04:09:25;;;;;;;5.30;2.80;;;;;;;6.49;69.79;101751.29;84291;1336;24248;-74
2022/09/05 04:11:53;;;;;;;4.90;1.90;;;;;;;6.46;69.99;101752.15;84232;1338;22672;-72
2022/09/05 04:14:26;;;;;;;5.30;2.20;;;;;;;6.41;70.09;101753.88;84281;1337;22603;-73
2022/09/05 04:16:56;;;;;;;4.10;2.40;;;;;;;6.36;70.30;101755.43;84282;1328;24304;-75
2022/09/05 04:19:28;;;;;;;5.70;2.10;;;;;;;6.34;70.38;101762.38;84089;1339;22818;-76
2022/09/05 04:21:57;;;;;;;5.00;1.80;;;;;;;6.32;70.73;101761.49;84208;1338;22721;-73
2022/09/05 04:24:30;;;;;;;6.30;2.20;;;;;;;6.31;70.70;101766.70;84093;1340;22749;-73
2022/09/05 04:27:32;;;;;;;9.80;2.20;;;;;;;6.30;70.80;101767.90;84183;1328;22624;-74
2022/09/05 04:31:26;;;;;;;8.80;1.90;;;;;;;6.30;71.41;101770.67;84096;1340;22686;-70
2022/09/05 04:35:01;;;;;;;;;;;;;;;6.32;71.43;101772.42;84068;1328;24095;-73
2022/09/05 04:38:51;;;;;;;2.70;1.80;;;;;;;6.36;71.74;101775.36;84013;1330;22692;-72
2022/09/05 04:42:13;;;;;;;;;;;;;;;;;;;;;
2022/09/05 04:46:18;;;;;;;;;;;;;;;;;;;;;
2022/09/05 04:49:30;;;;;;;4.20;2.20;;;;;;;6.94;71.78;101782.17;84056;1328;22815;-68
2022/09/05 04:59:59;;;;;;;10.90;2.90;;;;;;;7.31;71.93;101791.16;84092;1337;22712;-70
2022/09/05 05:03:07;;;;;;;19.30;2.30;;;;;;;7.44;72.03;101793.21;84100;1327;22739;-70
2022/09/05 05:06:27;;;;;;;14.50;2.70;;;;;;;7.55;72.57;101796.47;84040;1336;25471;-71
2022/09/05 05:09:45;;;;;;;15.90;3.30;;;;;;;7.70;72.38;101795.21;84068;1340;22692;-72
2022/09/05 05:13:01;;;;;;;10.20;3.50;;;;;;;7.86;72.26;101793.60;84052;1340;22803;-72
2022/09/05 05:16:15;;;;;;;8.20;3.20;;;;;;;8.08;72.28;101789.85;83990;1341;22620;-73
2022/09/05 05:19:21;;;;;;;6.60;1.90;;;;;;;8.32;71.77;101785.73;84087;1338;22617;-71
2022/09/05 05:22:10;;;;;;;3.70;1.60;;;;;;;8.61;71.00;101782.95;84030;1336;22686;-68
2022/09/05 05:25:12;;;;;;;;;;;;;;;9.29;71.42;101784.09;83910;1341;22771;-72
2022/09/05 05:28:51;;;;;;;6.00;1.70;;;;;;;11.63;71.13;101779.39;84099;1338;22867;-70
2022/09/05 05:31:54;;;;;;;8.20;2.10;;;;;;;14.23;64.10;101770.76;84080;1327;22613;-72
2022/09/05 05:34:51;;;;;;;3.90;1.40;;;;;;;16.39;58.24;101765.98;84071;1330;22630;-72
2022/09/05 05:37:59;;;;;;;6.00;1.60;;;;;;;18.19;52.25;101764.35;84007;1340;22632;-71
2022/09/05 05:41:42;;;;;;;;;;;;;;;;;;;;;
2022/09/05 05:44:59;;;;;;;4.00;1.10;;;;;;;20.80;43.32;101767.19;84034;1332;22675;-73
2022/09/05 05:47:31;;;;;;;2.50;1.60;;;;;;;21.39;41.40;101767.02;84143;1334;23248;-72
2022/09/05 05:50:09;;;;;;;3.20;1.00;;;;;;;21.56;40.03;101768.85;84172;1336;22595;-72
2022/09/05 05:53:10;;;;;;;6.50;1.50;;;;;;;21.01;39.26;101768.79;84198;1338;22614;-71
2022/09/05 05:55:55;;;;;;;5.50;1.30;;;;;;;20.15;39.94;101773.52;84116;1339;22626;-71
2022/09/05 05:58:49;;;;;;;6.90;1.60;;;;;;;20.34;39.74;101775.82;84064;1339;22620;-70
2022/09/05 06:02:00;;;;;;;5.00;1.70;;;;;;;21.23;39.64;101775.79;84200;1338;22672;-69
2022/09/05 06:05:15;;;;;;;6.70;1.30;;;;;;;22.70;38.42;101774.88;84141;1337;22634;-71
2022/09/05 06:07:51;;;;;;;3.80;1.50;;;;;;;24.36;35.50;101770.19;84053;1339;22729;-70
2022/09/05 06:10:51;;;;;;;10.20;1.70;;;;;;;25.42;33.48;101770.67;84070;1340;22612;-70
2022/09/05 06:13:48;;;;;;;5.70;1.90;;;;;;;26.51;31.15;101773.77;84082;1341;24239;-69
2022/09/05 06:17:01;;;;;;;5.60;1.20;;;;;;;27.16;29.59;101776.15;84081;1340;22870;-71
2022/09/05 06:20:15;;;;;;;7.20;1.60;;;;;;;27.21;29.09;101782.34;84083;1340;25328;-71
2022/09/05 06:23:01;;;;;;;6.50;1.60;;;;;;;27.26;28.47;101785.14;84091;1340;22613;-71
2022/09/05 06:26:08;;;;;;;3.60;1.20;;;;;;;27.05;27.69;101784.23;83924;1341;22600;-71
2022/09/05 06:28:47;;;;;;;4.70;1.30;;;;;;;26.10;28.03;101787.63;84020;1340;22822;-71
2022/09/05 06:31:27;;;;;;;5.60;1.00;;;;;;;25.03;28.81;101789.80;83890;1333;24713;-70
2022/09/05 06:34:03;;;;;;;2.00;1.00;;;;;;;24.14;29.44;101786.94;84072;1341;22613;-72
2022/09/05 06:36:42;;;;;;;4.60;1.00;;;;;;;23.32;30.21;101796.09;84089;1328;25331;-76
2022/09/05 06:39:14;;;;;;;5.50;1.00;;;;;;;22.54;31.07;101796.40;83832;1338;22752;-74
2022/09/05 06:41:50;;;;;;;4.20;1.50;;;;;;;21.95;31.49;101801.95;84105;1328;22606;-70
2022/09/05 06:45:00;;;;;;;4.60;1.50;;;;;;;21.36;32.47;101803.98;84126;1328;22827;-69
2022/09/05 06:47:27;;;;;;;9.70;1.20;;;;;;;20.65;33.18;101804.05;83917;1330;25492;-71
2022/09/05 06:50:12;;;;;;;6.80;1.20;;;;;;;20.15;34.04;101808.63;84076;1342;24240;-70
2022/09/05 06:53:21;;;;;;;7.80;0.90;;;;;;;19.78;34.71;101819.14;84116;1340;22684;-70
2022/09/05 06:56:22;;;;;;;5.10;1.00;;;;;;;19.44;35.47;101821.58;83746;1338;22607;-76
2022/09/05 06:59:55;;;;;;;5.30;0.90;;;;;;;19.28;35.90;101823.66;83711;1342;22680;-70
2022/09/05 07:02:30;;;;;;;5.60;1.50;;;;;;;19.17;36.96;101822.80;84205;1338;22702;-71
2022/09/05 07:05:07;;;;;;;1.80;1.00;;;;;;;19.13;36.42;101824.27;84193;1338;24064;-71
2022/09/05 07:07:39;;;;;;;3.50;1.40;;;;;;;19.07;36.74;101824.58;84243;1338;22631;-72
2022/09/05 07:10:09;;;;;;;7.20;1.50;;;;;;;19.07;36.62;101826.33;84094;1341;22660;-72
2022/09/05 07:12:39;;;;;;;5.90;1.40;;;;;;;19.31;37.50;101826.00;84218;1328;22622;-71
2022/09/05 07:15:14;;;;;;;5.90;1.90;;;;;;;19.78;37.75;101828.54;84181;1332;22684;-72
2022/09/05 07:17:56;;;;;;;5.70;1.60;;;;;;;20.24;37.09;101826.55;84062;1328;25428;-70
2022/09/05 07:20:26;;;;;;;6.90;1.50;;;;;;;20.40;35.59;101826.75;84250;1333;22820;-70
2022/09/05 07:22:58;;;;;;;3.60;1.40;;;;;;;20.43;35.33;101828.87;84278;1337;23066;-71
2022/09/05 07:25:27;;;;;;;7.50;2.50;;;;;;;20.36;35.16;101828.19;84238;1338;22610;-71
2022/09/05 07:27:56;;;;;;;10.70;2.30;;;;;;;20.33;34.64;101832.96;84245;1336;22752;-72
2022/09/05 07:30:22;;;;;;;13.40;4.60;;;;;;;20.22;34.64;101835.69;84261;1337;22627;-71
2022/09/05 07:32:50;;;;;;;13.80;5.00;;;;;;;20.11;35.25;101835.58;84268;1328;22935;-72
2022/09/05 07:35:20;;;;;;;23.60;7.30;;;;;;;20.15;35.17;101833.45;84117;1339;22609;-71
2022/09/05 07:37:47;;;;;;;5.10;3.30;;;;;;;20.19;35.39;101833.36;84016;1340;22675;-70
2022/09/05 07:40:16;;;;;;;11.10;2.40;;;;;;;20.40;35.44;101829.58;84075;1339;22676;-70
2022/09/05 07:42:45;;;;;;;5.70;1.60;;;;;;;20.88;35.43;101832.33;84018;1339;24290;-75
2022/09/05 07:45:15;;;;;;;28.90;8.20;;;;;;;21.66;34.78;101827.52;84050;1342;22601;-71
2022/09/05 07:47:43;;;;;;;26.00;6.60;;;;;;;22.19;33.19;101826.04;84195;1339;22672;-71
2022/09/05 07:50:11;;;;;;;14.30;5.00;;;;;;;22.90;32.24;101824.25;84171;1327;22730;-70
2022/09/05 07:52:39;;;;;;;14.90;3.90;;;;;;;23.50;31.35;101828.70;84188;1338;22670;-73
2022/09/05 07:55:14;;;;;;;4.70;1.80;;;;;;;24.17;30.17;101827.20;84185;1336;24252;-71
2022/09/05 07:57:44;;;;;;;7.50;1.90;;;;;;;24.89;29.21;101820.63;84229;1338;22691;-70
2022/09/05 08:00:19;;;;;;;6.80;1.20;;;;;;;25.75;27.01;101818.52;84243;1337;22604;-72
2022/09/05 08:02:48;;;;;;;5.20;1.00;;;;;;;26.34;26.44;101818.23;84266;1339;24037;-71
2022/09/05 08:05:15;;;;;;;7.50;0.80;;;;;;;27.11;26.34;101822.08;84264;1338;22710;-73
2022/09/05 08:07:43;;;;;;;4.10;0.80;;;;;;;27.94;25.22;101822.77;84280;1336;22612;-72
2022/09/05 08:10:12;;;;;;;2.10;0.80;;;;;;;28.61;23.92;101819.94;84164;1327;22672;-72
2022/09/05 08:12:41;;;;;;;3.90;0.90;;;;;;;29.20;23.92;101820.26;84276;1338;22633;-72
2022/09/05 08:15:11;;;;;;;4.20;1.10;;;;;;;29.95;23.64;101816.52;84265;1334;25446;-71
2022/09/05 08:17:50;;;;;;;1.80;0.90;;;;;;;30.68;22.46;101818.61;84229;1339;23990;-73
2022/09/05 08:20:33;;;;;;;3.10;1.50;;;;;;;31.03;20.96;101815.98;84251;1338;22633;-73
2022/09/05 08:23:03;;;;;;;2.80;0.70;;;;;;;31.27;20.68;101817.17;84235;1338;25053;-71
2022/09/05 08:25:32;;;;;;;6.00;1.10;;;;;;;31.67;19.89;101819.15;84264;1336;22858;-71
2022/09/05 08:28:06;;;;;;;3.80;1.90;;;;;;;31.77;19.32;101810.88;84249;1328;22580;-71
2022/09/05 08:30:39;;;;;;;4.70;1.00;;;;;;;31.95;19.60;101811.30;83993;1339;24045;-73
2022/09/05 08:33:07;;;;;;;1.80;0.70;;;;;;;32.24;18.97;101811.79;84065;1339;24254;-71
2022/09/05 08:35:36;;;;;;;2.80;0.50;;;;;;;32.50;18.98;101812.78;84158;1337;22908;-73
2022/09/05 08:38:03;;;;;;;2.90;0.90;;;;;;;32.61;17.95;101807.45;84152;1338;22734;-72
2022/09/05 08:40:34;;;;;;;4.20;1.40;;;;;;;32.51;17.52;101802.08;84256;1328;25318;-71
2022/09/05 08:43:05;;;;;;;6.70;1.50;;;;;;;32.56;17.96;101798.95;84240;1338;27179;-70
2022/09/05 08:45:40;;;;;;;0.70;0.60;;;;;;;32.78;18.07;101803.98;84243;1337;22637;-73
2022/09/05 08:48:18;;;;;;;1.90;0.60;;;;;;;32.82;17.57;101800.04;84240;1338;22761;-72
2022/09/05 08:51:11;;;;;;;7.10;0.80;;;;;;;32.98;17.21;101794.95;84256;1337;25459;-71
2022/09/05 08:53:58;;;;;;;2.90;0.50;;;;;;;33.08;16.84;101798.45;84197;1339;22613;-72
2022/09/05 08:56:25;;;;;;;1.00;0.30;;;;;;;33.02;16.70;101798.06;84331;1334;24247;-72
2022/09/05 08:58:58;;;;;;;5.10;0.60;;;;;;;33.06;16.70;101795.48;84144;1335;22604;-73
2022/09/05 09:01:30;;;;;;;37.00;3.70;;;;;;;32.87;16.40;101789.48;84288;1333;22588;-72
2022/09/05 09:04:15;;;;;;;1.70;1.20;;;;;;;32.70;16.68;101792.76;84278;1337;22818;-70
2022/09/05 09:07:16;;;;;;;1.60;0.70;;;;;;;32.91;17.17;101788.42;84177;1340;25521;-71
2022/09/05 09:09:49;;;;;;;0.80;0.50;;;;;;;33.24;16.99;101796.04;84177;1338;24276;-72
2022/09/05 09:12:30;;;;;;;4.60;1.10;;;;;;;33.51;16.56;101787.38;84258;1337;22780;-72
2022/09/05 09:14:59;;;;;;;1.90;0.90;;;;;;;33.22;15.68;101781.86;84110;1339;22638;-72
2022/09/05 09:17:40;;;;;;;5.60;1.60;;;;;;;32.93;16.58;101780.67;84216;1338;25494;-73
2022/09/05 09:20:32;;;;;;;13.40;3.30;;;;;;;32.94;16.70;101779.30;84238;1335;26185;-72
2022/09/05 09:23:02;;;;;;;15.40;2.90;;;;;;;33.02;16.52;101773.63;84218;1336;22615;-73
2022/09/05 09:25:32;;;;;;;2.80;0.70;;;;;;;32.96;16.44;101771.05;84122;1340;23215;-72
2022/09/05 09:28:28;;;;;;;2.00;0.60;;;;;;;33.07;16.72;101774.34;84095;1329;22721;-72
2022/09/05 09:31:03;;;;;;;1.10;0.70;;;;;;;33.24;16.29;101767.41;84097;1338;22768;-71
2022/09/05 09:33:40;;;;;;;5.20;1.40;;;;;;;33.07;16.76;101765.14;84268;1334;22690;-73
2022/09/05 09:36:09;;;;;;;4.00;1.20;;;;;;;32.90;16.95;101763.29;84063;1336;25476;-71
2022/09/05 09:38:41;;;;;;;10.50;1.10;;;;;;;32.42;16.63;101758.02;84060;1328;22678;-73
2022/09/05 09:41:46;;;;;;;1.00;0.70;;;;;;;31.66;16.73;101765.15;84118;1328;25479;-72
2022/09/05 09:45:07;;;;;;;1.80;0.60;;;;;;;30.71;17.17;101765.02;84264;1336;22628;-73
2022/09/05 09:47:55;;;;;;;2.20;0.40;;;;;;;30.01;18.52;101756.13;83455;1334;473922;-70
2022/09/05 09:50:32;;;;;;;3.50;0.60;;;;;;;29.60;19.29;101752.31;84247;1330;23083;-72
2022/09/05 09:53:12;;;;;;;2.90;0.60;;;;;;;29.24;19.83;101755.16;84251;1338;23046;-71
2022/09/05 09:56:22;;;;;;;1.60;0.40;;;;;;;28.85;19.61;101753.84;84252;1325;22648;-70
2022/09/05 09:59:16;;;;;;;2.80;1.00;;;;;;;28.04;20.55;101752.96;84117;1328;23026;-71
2022/09/05 10:01:52;;;;;;;3.70;0.80;;;;;;;27.53;20.53;101752.48;84134;1338;24328;-71
2022/09/05 10:04:54;;;;;;;11.40;1.30;;;;;;;26.98;21.41;101753.15;84056;1339;22652;-72
2022/09/05 10:08:01;;;;;;;3.10;0.60;;;;;;;26.61;22.38;101750.16;84037;1340;23273;-73
2022/09/05 10:10:59;;;;;;;2.20;0.50;;;;;;;26.37;21.98;101747.66;84114;1342;22607;-71
2022/09/05 10:13:28;;;;;;;1.20;0.40;;;;;;;25.58;21.90;101739.58;84287;1325;24284;-71
2022/09/05 10:16:31;;;;;;;2.00;0.60;;;;;;;25.29;22.92;101740.83;84273;1338;22669;-73
2022/09/05 10:19:18;;;;;;;1.10;0.50;;;;;;;25.25;23.68;101743.70;84242;1338;22682;-71
2022/09/05 10:22:02;;;;;;;2.70;0.50;;;;;;;25.25;23.25;101743.11;84278;1338;25462;-70
2022/09/05 10:25:12;;;;;;;0.70;0.30;;;;;;;25.14;23.15;101737.04;84264;1337;22606;-71
2022/09/05 10:28:07;;;;;;;4.00;1.50;;;;;;;25.02;23.71;101735.77;83939;1341;22615;-73
2022/09/05 10:30:46;;;;;;;2.20;0.60;;;;;;;24.89;23.52;101735.86;84268;1325;22740;-73
2022/09/05 10:33:38;;;;;;;6.00;1.00;;;;;;;24.86;23.86;101733.98;84266;1336;22682;-73
2022/09/05 10:36:22;;;;;;;1.60;0.70;;;;;;;24.66;24.26;101731.21;84061;1341;24232;-73
2022/09/05 10:38:52;;;;;;;5.80;0.90;;;;;;;24.51;24.26;101730.91;84317;1334;24183;-73
2022/09/05 10:41:21;;;;;;;1.10;0.30;;;;;;;24.28;24.26;101731.18;84217;1328;22673;-72
2022/09/05 10:43:52;;;;;;;5.80;0.80;;;;;;;24.00;24.21;101732.70;84298;1335;24277;-72
2022/09/05 10:46:29;;;;;;;5.80;0.60;;;;;;;23.77;24.56;101730.59;84294;1338;26517;-72
2022/09/05 10:48:56;;;;;;;1.80;0.40;;;;;;;23.52;24.78;101733.83;84058;1341;22872;-72
2022/09/05 10:51:28;;;;;;;2.40;0.60;;;;;;;23.37;25.04;101731.31;84325;1340;22608;-72
2022/09/05 10:54:04;;;;;;;0.70;0.50;;;;;;;23.20;25.24;101728.02;84285;1337;22718;-72
2022/09/05 10:56:35;;;;;;;0.40;0.40;;;;;;;23.08;25.74;101723.54;84198;1339;22612;-72
2022/09/05 10:59:03;;;;;;;0.90;0.40;;;;;;;23.09;25.63;101721.52;84281;1338;22676;-72
2022/09/05 11:01:36;;;;;;;5.70;0.60;;;;;;;22.99;25.63;101722.95;84286;1337;22596;-71
2022/09/05 11:04:14;;;;;;;9.70;1.50;;;;;;;22.90;26.12;101720.13;84200;1339;22599;-71
2022/09/05 11:06:54;;;;;;;2.70;0.80;;;;;;;22.93;26.52;101722.67;84309;1338;23133;-72
2022/09/05 11:09:35;;;;;;;2.50;0.60;;;;;;;22.90;25.87;101719.77;84308;1337;23971;-74
2022/09/05 11:12:12;;;;;;;1.20;0.40;;;;;;;22.86;26.06;101718.47;84374;1337;22659;-73
2022/09/05 11:14:49;;;;;;;0.70;0.60;;;;;;;22.84;26.72;101721.59;84229;1337;22626;-74
2022/09/05 11:17:25;;;;;;;0.40;0.40;;;;;;;22.85;26.95;101715.32;84346;1333;24238;-73
2022/09/05 11:19:55;;;;;;;0.90;0.80;;;;;;;22.90;27.27;101709.81;84285;1337;22606;-70
2022/09/05 11:22:22;;;;;;;1.30;0.70;;;;;;;23.00;27.33;101708.63;84274;1338;22662;-72
2022/09/05 11:24:51;;;;;;;2.10;0.50;;;;;;;23.05;27.14;101709.00;84267;1338;24286;-72
2022/09/05 11:27:25;;;;;;;0.40;0.30;;;;;;;23.03;26.97;101705.02;84290;1336;22788;-73
2022/09/05 11:29:53;;;;;;;0.90;0.40;;;;;;;23.03;27.37;101704.63;84265;1328;22909;-73
2022/09/05 11:33:18;;;;;;;4.20;0.60;;;;;;;23.01;27.28;101706.23;84167;1338;22623;-73
2022/09/05 11:35:47;;;;;;;1.40;0.60;;;;;;;22.96;27.47;101705.86;83511;1345;22770;-74
2022/09/05 11:39:03;;;;;;;26.40;4.10;;;;;;;22.85;27.33;101704.43;84120;1336;22631;-71
2022/09/05 11:41:59;;;;;;;4.00;1.00;;;;;;;22.65;27.12;101709.17;84273;1337;22624;-71
2022/09/05 11:44:40;;;;;;;0.40;0.40;;;;;;;22.50;26.81;101707.58;84221;1338;26560;-72
2022/09/05 11:47:25;;;;;;;3.30;0.40;;;;;;;22.27;26.98;101701.08;84322;1339;22602;-74
2022/09/05 11:50:24;;;;;;;10.80;0.80;;;;;;;22.11;27.19;101696.63;84291;1337;22669;-70
2022/09/05 11:53:24;;;;;;;0.70;0.60;;;;;;;22.01;27.76;101690.64;84200;1328;22721;-70
2022/09/05 11:56:09;;;;;;;2.10;0.80;;;;;;;21.97;27.52;101690.77;84215;1339;22634;-69
2022/09/05 11:58:58;;;;;;;6.00;0.70;;;;;;;21.82;27.50;101688.01;84258;1337;23973;-72
2022/09/05 12:01:32;;;;;;;2.60;0.80;;;;;;;21.71;28.20;101686.20;84293;1328;22692;-71
2022/09/05 12:04:27;;;;;;;1.70;1.10;;;;;;;21.73;28.10;101680.94;84295;1337;22601;-71
2022/09/05 12:07:42;;;;;;;3.40;0.70;;;;;;;21.65;28.09;101679.98;84290;1337;22604;-72
2022/09/05 12:10:22;;;;;;;0.60;0.40;;;;;;;21.59;27.98;101683.08;84188;1340;23073;-72
2022/09/05 12:12:58;;;;;;;2.10;0.30;;;;;;;21.54;28.23;101677.49;84238;1335;22687;-73
2022/09/05 12:15:32;;;;;;;7.10;1.30;;;;;;;21.54;28.25;101678.20;84139;1340;23901;-73
2022/09/05 12:18:22;;;;;;;3.10;0.60;;;;;;;21.49;27.95;101674.32;84279;1328;25305;-71
2022/09/05 12:21:11;;;;;;;0.40;0.40;;;;;;;21.25;28.22;101675.40;84313;1337;25422;-75
2022/09/05 12:23:49;;;;;;;13.80;1.10;;;;;;;21.02;28.27;101678.25;84192;1340;22619;-76
2022/09/05 12:26:19;;;;;;;6.30;0.70;;;;;;;20.75;28.71;101678.44;84275;1338;23150;-75
2022/09/05 12:28:45;;;;;;;;;;;;;;;20.60;28.60;101678.27;84196;1336;22992;-75
2022/09/05 12:31:26;;;;;;;1.20;0.40;;;;;;;20.53;29.00;101674.78;84218;1338;25320;-74
2022/09/05 12:33:54;;;;;;;0.80;0.40;;;;;;;20.57;28.91;101665.34;84279;1338;24229;-72
2022/09/05 12:36:34;;;;;;;0.80;0.50;;;;;;;20.61;29.08;101665.98;84270;1337;22782;-74
2022/09/05 12:39:13;;;;;;;0.90;0.30;;;;;;;20.67;29.47;101661.36;84300;1329;22767;-73
2022/09/05 12:41:49;;;;;;;1.40;0.40;;;;;;;20.72;29.40;101661.75;84263;1338;22763;-75
2022/09/05 12:44:39;;;;;;;2.30;0.80;;;;;;;20.72;28.95;101659.67;84267;1339;22672;-77
2022/09/05 12:47:08;;;;;;;1.30;0.40;;;;;;;20.68;28.85;101659.20;84137;1328;25480;-78
2022/09/05 12:49:40;;;;;;;1.60;0.50;;;;;;;20.66;29.28;101657.93;84120;1341;22625;-78
2022/09/05 12:52:09;;;;;;;1.00;0.50;;;;;;;20.65;29.22;101655.29;84170;1339;22696;-70
2022/09/05 12:54:45;;;;;;;4.40;0.60;;;;;;;20.67;29.31;101657.32;84216;1336;22633;-71
2022/09/05 12:57:18;;;;;;;1.60;0.50;;;;;;;20.64;29.17;101651.83;84226;1328;22727;-72